Strona główna
METAR-TAF:

METAR-TAF

Lotnisko :

Pruniers

Romorantin-Lanthenay, Francja

Szerokość geograficzna: 47-19N, Długość geograficzna: 001-41E, wysokość: 85 m

Aktualna obserwacja pogody

Raport powstał 32 minut temu, godzina 11:30 UTC
Wiatr 4 kt od wschód
Temperatura 11°C
Wilgotność 94%
Ciśnienie 1003 hPa
Widzialność 10 km lub więcej
Brak chmur poniżej 1500 m i brak chmur cumulonimbus

METAR: LFYR 161130Z AUTO 10004KT CAVOK 11/10 Q1003 NOSIG

czas: 13:02 (12:02 UTC)


TAF: brakujący

Obserwacja i prognoza pogody dla ponad 4000 lotnisk (raport METAR i TAF).

Dostępne stacje oznaczono żółtymi i czerwonymi punktami na mapie.

Najedź kursorem aby zobaczyć nazwę stacji.

Kliknij aby zobaczyć obserwacje i prognozy pogody.

Aby zmienić mapę: kliknij na zielony przycisk z czarnym krzyżykiem, aby powiększyć; na zielony przycisk z myślnikiem, aby pomniejszyć; na zielone strzałki, aby przejść do map sąsiednich.


METAR-TAF: